Crane, Oregon
Current Conditions -  °F | °C
As of 7:53 AM on Thursday 23 Oct 2014 (Local Time) from KBNO Reporting Station
Scattered Clouds Scattered Clouds  
Wind Chill: 45°   Ceiling: Unl
Heat Index: 47°   Visibility: 10mi
Dew Point: 44°   Wind: 5mph
Humidity: 90%   Direction: 90°E
Pressure: 29.99"   Gusts: NA
Location:  43.41°N, 118.58°W
Report Text: KBNO 231453Z AUTO 09004KT 10SM FEW090 SCT110 08/07 A2999 RMK AO2 RAB18E28 SLP146 P0000 60026 T00830067 55000
Loading
Personal Weather Stations






























Interactive Weather Map New forecast layout! Learn more

10-Day Weather Forecast

Advertisements
Track Severe Weather on mobile